createdAt,value
2022-10-21T00:01:14.332Z,42.10
2022-10-21T00:06:17.774Z,37.30
2022-10-21T00:11:22.717Z,40.70
2022-10-21T00:16:26.253Z,36.40
2022-10-21T00:21:29.819Z,39.88
2022-10-21T00:26:37.637Z,40.70
2022-10-21T00:31:42.677Z,34.83
2022-10-21T00:36:46.129Z,35.13
2022-10-21T00:41:50.952Z,40.25
2022-10-21T00:46:58.914Z,46.75
2022-10-21T00:52:04.713Z,43.85
2022-10-21T00:57:10.564Z,39.70
2022-10-21T01:02:14.079Z,38.83
2022-10-21T01:07:17.715Z,41.00
2022-10-21T01:12:31.276Z,43.85
2022-10-21T01:17:47.125Z,40.85
2022-10-21T01:23:19.270Z,43.75
2022-10-21T01:28:38.237Z,43.67
2022-10-21T01:33:46.519Z,34.17
2022-10-21T01:39:11.151Z,34.25
2022-10-21T01:44:22.582Z,39.45
2022-10-21T01:49:34.391Z,46.50
2022-10-21T01:54:41.467Z,33.33
2022-10-21T01:59:46.851Z,42.90
2022-10-21T02:04:53.009Z,48.28
2022-10-21T02:09:56.697Z,43.80
2022-10-21T02:15:02.298Z,61.83
2022-10-21T02:20:10.659Z,45.75
2022-10-21T02:25:19.943Z,40.85
2022-10-21T02:30:27.357Z,38.60
2022-10-21T02:35:40.074Z,33.60
2022-10-21T02:40:46.741Z,35.85
2022-10-21T02:45:50.873Z,47.47
2022-10-21T02:50:55.977Z,40.67
2022-10-21T02:55:59.565Z,42.45
2022-10-21T03:01:03.368Z,46.13
2022-10-21T03:06:08.356Z,37.05
2022-10-21T03:11:11.900Z,42.00
2022-10-21T03:16:15.485Z,39.30
2022-10-21T03:21:20.451Z,45.42
2022-10-21T03:26:24.147Z,45.45
2022-10-21T03:31:27.584Z,33.00
2022-10-21T03:36:32.486Z,31.95
2022-10-21T03:41:35.956Z,38.88
2022-10-21T03:46:39.423Z,45.92
2022-10-21T03:51:44.272Z,51.03
2022-10-21T03:56:48.112Z,36.20
2022-10-21T04:01:51.609Z,29.80
2022-10-21T04:06:56.444Z,40.63
2022-10-21T04:11:59.893Z,38.60
2022-10-21T04:17:07.684Z,33.40
2022-10-21T04:22:12.767Z,27.60
2022-10-21T04:27:16.390Z,28.33
2022-10-21T04:32:19.836Z,33.65
2022-10-21T04:37:24.770Z,30.02
2022-10-21T04:47:36.833Z,31.90
2022-10-21T04:52:41.838Z,30.27
2022-10-21T04:57:46.034Z,35.70
2022-10-21T05:02:49.531Z,32.40
2022-10-21T05:07:54.372Z,33.85
2022-10-21T05:12:58.300Z,26.20
2022-10-21T05:18:02.124Z,23.48
2022-10-21T05:23:07.086Z,29.55
2022-10-21T05:28:10.520Z,31.15
2022-10-21T05:33:14.553Z,35.60
2022-10-21T05:38:19.396Z,27.38
2022-10-21T05:43:23.009Z,24.02
2022-10-21T05:48:29.033Z,30.30
2022-10-21T05:53:33.853Z,29.92
2022-10-21T05:58:37.514Z,24.27
2022-10-21T06:03:40.990Z,27.33
2022-10-21T06:08:46.269Z,27.25
2022-10-21T06:13:50.377Z,32.40
2022-10-21T06:18:53.856Z,31.58
2022-10-21T06:23:58.725Z,26.55
2022-10-21T06:29:02.173Z,30.10
2022-10-21T06:34:05.834Z,29.52
2022-10-21T06:39:10.856Z,28.38
2022-10-21T06:44:14.355Z,29.73
2022-10-21T06:49:17.954Z,31.30
2022-10-21T06:54:22.904Z,37.50
2022-10-21T06:59:26.574Z,32.55
2022-10-21T07:04:30.776Z,31.05
2022-10-21T07:09:36.059Z,31.17
2022-10-21T07:14:39.684Z,30.17
2022-10-21T07:19:43.455Z,34.58
2022-10-21T07:24:48.485Z,32.88
2022-10-21T07:29:52.218Z,30.60
2022-10-21T07:34:55.957Z,32.63
2022-10-21T07:40:00.775Z,32.88
2022-10-21T07:45:04.946Z,31.77
2022-10-21T07:50:09.330Z,30.45
2022-10-21T07:55:15.645Z,34.50
2022-10-21T08:00:19.172Z,28.60
2022-10-21T08:05:23.234Z,25.17
2022-10-21T08:10:28.124Z,37.05
2022-10-21T08:15:31.716Z,33.88
2022-10-21T08:20:35.279Z,34.35
2022-10-21T08:25:40.819Z,34.60
2022-10-21T08:30:44.857Z,34.05
2022-10-21T08:35:48.588Z,34.45
2022-10-21T08:40:55.706Z,97.53
2022-10-21T08:46:03.853Z,29.75
2022-10-21T08:51:13.427Z,32.55
2022-10-21T08:56:20.186Z,31.10
2022-10-21T09:01:33.629Z,25.08
2022-10-21T09:06:44.381Z,28.75
2022-10-21T09:11:58.764Z,25.65
2022-10-21T09:17:12.230Z,20.83
2022-10-21T09:22:36.096Z,19.58
2022-10-21T09:27:54.866Z,21.83
2022-10-21T09:33:01.162Z,24.45
2022-10-21T09:38:12.604Z,19.48
2022-10-21T09:43:22.099Z,25.60
2022-10-21T09:48:36.984Z,16.95
2022-10-21T09:53:54.170Z,25.00
2022-10-21T09:59:08.246Z,21.23
2022-10-21T10:04:13.292Z,22.20
2022-10-21T10:09:19.065Z,17.13
2022-10-21T10:14:35.830Z,28.83
2022-10-21T10:19:39.631Z,21.33
2022-10-21T10:24:44.699Z,28.30
2022-10-21T10:29:55.159Z,31.65
2022-10-21T10:35:03.301Z,26.83
2022-10-21T10:40:10.607Z,28.02
2022-10-21T10:45:19.861Z,23.27
2022-10-21T10:50:44.094Z,27.45
2022-10-21T10:55:52.898Z,29.00
2022-10-21T11:01:02.070Z,24.98
2022-10-21T11:06:14.728Z,26.10
2022-10-21T11:11:24.843Z,30.08
2022-10-21T11:17:01.325Z,21.60
2022-10-21T11:22:14.417Z,25.63
2022-10-21T11:27:32.568Z,24.33
2022-10-21T11:32:55.191Z,30.30
2022-10-21T11:38:32.781Z,26.77
2022-10-21T11:43:45.801Z,40.63
2022-10-21T11:49:19.523Z,26.08
2022-10-21T11:54:57.521Z,26.85
2022-10-21T12:00:22.299Z,22.15
2022-10-21T12:05:48.740Z,18.95
2022-10-21T12:10:58.517Z,20.15
2022-10-21T12:21:39.744Z,17.45
2022-10-21T12:26:49.589Z,10.23
2022-10-21T12:32:03.905Z,14.00
2022-10-21T12:38:00.579Z,10.25
2022-10-21T12:43:06.912Z,11.93
2022-10-21T12:48:31.955Z,11.20
2022-10-21T12:53:41.552Z,11.20
2022-10-21T12:58:46.576Z,16.77
2022-10-21T13:03:56.393Z,10.88
2022-10-21T13:09:02.224Z,13.73
2022-10-21T13:14:35.279Z,12.90
2022-10-21T13:19:40.037Z,8.82
2022-10-21T13:24:46.539Z,9.35
2022-10-21T13:29:50.929Z,11.68
2022-10-21T13:35:04.292Z,12.70
2022-10-21T13:40:15.981Z,13.45
2022-10-21T13:45:26.658Z,11.07
2022-10-21T13:50:34.980Z,7.00
2022-10-21T13:55:39.938Z,13.77
2022-10-21T14:00:43.727Z,8.95
2022-10-21T14:05:51.321Z,6.13
2022-10-21T14:11:01.951Z,9.93
2022-10-21T14:16:08.325Z,9.35
2022-10-21T14:21:19.431Z,11.15
2022-10-21T14:31:28.671Z,6.32
2022-10-21T14:36:32.167Z,8.18
2022-10-21T14:41:39.376Z,4.63
2022-10-21T14:46:45.099Z,4.63
2022-10-21T14:51:57.508Z,5.53
2022-10-21T14:57:04.535Z,8.18
2022-10-21T15:02:18.348Z,5.82
2022-10-21T15:07:30.071Z,3.80
2022-10-21T15:12:41.302Z,5.15
2022-10-21T15:17:45.223Z,4.70
2022-10-21T15:22:49.595Z,4.97
2022-10-21T15:27:55.237Z,2.55
2022-10-21T15:32:58.835Z,10.20
2022-10-21T15:38:02.419Z,6.97
2022-10-21T15:43:07.408Z,3.90
2022-10-21T15:48:12.323Z,11.23
2022-10-21T15:53:15.877Z,5.45
2022-10-21T15:58:20.955Z,11.68
2022-10-21T16:03:24.527Z,12.52
2022-10-21T16:08:28.140Z,16.52
2022-10-21T16:13:33.046Z,10.40
2022-10-21T16:18:36.740Z,12.48
2022-10-21T16:23:40.371Z,15.93
2022-10-21T16:28:45.286Z,11.07
2022-10-21T16:33:49.508Z,17.13
2022-10-21T16:38:54.519Z,10.32
2022-10-21T16:43:59.582Z,9.55
2022-10-21T16:49:09.193Z,8.05
2022-10-21T16:54:16.818Z,8.75
2022-10-21T16:59:21.954Z,8.00
2022-10-21T17:04:25.697Z,8.60
2022-10-21T17:09:29.304Z,9.55
2022-10-21T17:19:38.928Z,9.60
2022-10-21T17:24:42.443Z,6.88
2022-10-21T17:29:47.626Z,6.60
2022-10-21T17:34:51.114Z,7.25
2022-10-21T17:39:54.596Z,5.97
2022-10-21T17:45:02.890Z,7.00
2022-10-21T17:50:08.454Z,10.35
2022-10-21T17:55:11.975Z,7.75
2022-10-21T18:00:17.440Z,9.93
2022-10-21T18:05:21.330Z,7.82
2022-10-21T18:10:25.021Z,9.70
2022-10-21T18:15:31.527Z,7.15
2022-10-21T18:20:37.739Z,10.95
2022-10-21T18:25:42.411Z,7.68
2022-10-21T18:30:47.571Z,8.25
2022-10-21T18:35:51.414Z,11.13
2022-10-21T18:40:56.640Z,8.10
2022-10-21T18:46:07.310Z,14.80
2022-10-21T18:51:12.586Z,12.15
2022-10-21T18:56:17.514Z,11.32
2022-10-21T19:01:23.491Z,21.05
2022-10-21T19:06:35.866Z,13.70
2022-10-21T19:11:39.799Z,14.93
2022-10-21T19:16:45.602Z,9.95
2022-10-21T19:21:49.784Z,9.60
2022-10-21T19:26:55.778Z,10.35
2022-10-21T19:32:02.341Z,5.15
2022-10-21T19:37:06.876Z,6.72
2022-10-21T19:42:10.489Z,10.25
2022-10-21T19:47:15.655Z,36.85
2022-10-21T19:52:19.254Z,10.57
2022-10-21T19:57:22.977Z,10.27
2022-10-21T20:02:27.997Z,9.73
2022-10-21T20:07:35.769Z,14.65
2022-10-21T20:12:39.593Z,10.75
2022-10-21T20:17:44.737Z,13.50
2022-10-21T20:22:48.300Z,7.32
2022-10-21T20:27:51.691Z,7.43
2022-10-21T20:32:56.529Z,14.23
2022-10-21T20:38:00.119Z,7.75
2022-10-21T20:43:03.780Z,10.23
2022-10-21T20:48:08.628Z,9.93
2022-10-21T20:53:12.250Z,11.38
2022-10-21T20:58:15.685Z,10.63
2022-10-21T21:03:20.644Z,8.73
2022-10-21T21:08:24.088Z,7.57
2022-10-21T21:13:27.656Z,7.53
2022-10-21T21:18:32.552Z,7.88
2022-10-21T21:23:36.789Z,6.43
2022-10-21T21:28:40.880Z,12.75
2022-10-21T21:33:46.343Z,9.68
2022-10-21T21:38:51.629Z,11.55
2022-10-21T21:43:56.592Z,7.25
2022-10-21T21:49:05.663Z,10.57
2022-10-21T21:54:09.564Z,7.65
2022-10-21T21:59:13.015Z,5.38
2022-10-21T22:04:18.018Z,8.38
2022-10-21T22:09:21.484Z,10.77
2022-10-21T22:14:24.932Z,10.90
2022-10-21T22:19:29.794Z,15.13
2022-10-21T22:29:42.204Z,10.38
2022-10-21T22:34:47.040Z,7.82
2022-10-21T22:39:50.910Z,14.25
2022-10-21T22:44:54.336Z,8.68
2022-10-21T22:49:59.147Z,9.48
2022-10-21T22:55:02.653Z,7.65
2022-10-21T23:00:07.225Z,11.07
2022-10-21T23:05:12.014Z,6.65
2022-10-21T23:10:15.531Z,8.02
2022-10-21T23:15:18.985Z,8.77
2022-10-21T23:20:23.791Z,12.48
2022-10-21T23:25:27.936Z,12.02
2022-10-21T23:30:33.798Z,7.68
2022-10-21T23:35:38.600Z,10.77
2022-10-21T23:40:42.109Z,8.07
2022-10-21T23:45:45.589Z,11.20
2022-10-21T23:50:50.395Z,9.10
2022-10-21T23:55:53.880Z,10.77
